sensor_id;sensor_type;location;lat;lon;timestamp;temperature;humidity
67163;DHT22;54092;53.088;8.850;2023-02-03T00:01:10;8.40;99.90
67163;DHT22;54092;53.088;8.850;2023-02-03T00:03:35;8.40;99.90
67163;DHT22;54092;53.088;8.850;2023-02-03T00:06:02;8.40;99.90
67163;DHT22;54092;53.088;8.850;2023-02-03T00:08:29;8.40;99.90
67163;DHT22;54092;53.088;8.850;2023-02-03T00:10:55;8.40;99.90
67163;DHT22;54092;53.088;8.850;2023-02-03T00:13:21;8.50;99.90
67163;DHT22;54092;53.088;8.850;2023-02-03T00:15:46;8.50;99.90
67163;DHT22;54092;53.088;8.850;2023-02-03T00:18:12;8.50;99.90
67163;DHT22;54092;53.088;8.850;2023-02-03T00:20:37;8.50;99.90
67163;DHT22;54092;53.088;8.850;2023-02-03T00:23:08;8.50;99.90
67163;DHT22;54092;53.088;8.850;2023-02-03T00:25:34;8.60;99.90
67163;DHT22;54092;53.088;8.850;2023-02-03T00:28:00;8.50;99.90
67163;DHT22;54092;53.088;8.850;2023-02-03T00:30:26;8.50;99.90
67163;DHT22;54092;53.088;8.850;2023-02-03T00:32:51;8.50;99.90
67163;DHT22;54092;53.088;8.850;2023-02-03T00:35:17;8.60;99.90
67163;DHT22;54092;53.088;8.850;2023-02-03T00:37:42;8.50;99.90
67163;DHT22;54092;53.088;8.850;2023-02-03T00:40:08;8.50;99.90
67163;DHT22;54092;53.088;8.850;2023-02-03T00:42:34;8.50;99.90
67163;DHT22;54092;53.088;8.850;2023-02-03T00:45:00;8.50;99.90
67163;DHT22;54092;53.088;8.850;2023-02-03T00:47:26;8.50;99.90
67163;DHT22;54092;53.088;8.850;2023-02-03T00:49:51;8.50;99.90
67163;DHT22;54092;53.088;8.850;2023-02-03T00:52:16;8.50;99.90
67163;DHT22;54092;53.088;8.850;2023-02-03T00:54:42;8.50;99.90
67163;DHT22;54092;53.088;8.850;2023-02-03T00:57:08;8.50;99.90
67163;DHT22;54092;53.088;8.850;2023-02-03T00:59:33;8.50;99.90
67163;DHT22;54092;53.088;8.850;2023-02-03T01:01:59;8.50;99.90
67163;DHT22;54092;53.088;8.850;2023-02-03T01:04:24;8.60;99.90
67163;DHT22;54092;53.088;8.850;2023-02-03T01:06:50;8.50;99.90
67163;DHT22;54092;53.088;8.850;2023-02-03T01:09:15;8.50;99.90
67163;DHT22;54092;53.088;8.850;2023-02-03T01:11:41;8.60;99.90
67163;DHT22;54092;53.088;8.850;2023-02-03T01:14:07;8.60;99.90
67163;DHT22;54092;53.088;8.850;2023-02-03T01:16:32;8.60;99.90
67163;DHT22;54092;53.088;8.850;2023-02-03T01:19:00;8.60;99.90
67163;DHT22;54092;53.088;8.850;2023-02-03T01:21:26;8.60;99.90
67163;DHT22;54092;53.088;8.850;2023-02-03T01:23:52;8.60;99.90
67163;DHT22;54092;53.088;8.850;2023-02-03T01:26:21;8.60;99.90
67163;DHT22;54092;53.088;8.850;2023-02-03T01:28:55;8.70;99.90
67163;DHT22;54092;53.088;8.850;2023-02-03T01:31:24;8.70;99.90
67163;DHT22;54092;53.088;8.850;2023-02-03T01:33:51;8.70;99.90
67163;DHT22;54092;53.088;8.850;2023-02-03T01:36:19;8.70;99.90
67163;DHT22;54092;53.088;8.850;2023-02-03T01:38:44;8.70;99.90
67163;DHT22;54092;53.088;8.850;2023-02-03T01:41:13;8.70;99.90
67163;DHT22;54092;53.088;8.850;2023-02-03T01:43:41;8.70;99.90
67163;DHT22;54092;53.088;8.850;2023-02-03T01:46:38;8.70;99.90
67163;DHT22;54092;53.088;8.850;2023-02-03T01:49:18;8.60;99.90
67163;DHT22;54092;53.088;8.850;2023-02-03T01:51:48;8.70;99.90
67163;DHT22;54092;53.088;8.850;2023-02-03T01:54:19;8.70;99.90
67163;DHT22;54092;53.088;8.850;2023-02-03T01:56:50;8.70;99.90
67163;DHT22;54092;53.088;8.850;2023-02-03T01:59:18;8.70;99.90
67163;DHT22;54092;53.088;8.850;2023-02-03T02:01:45;8.80;99.90
67163;DHT22;54092;53.088;8.850;2023-02-03T02:04:11;8.70;99.90
67163;DHT22;54092;53.088;8.850;2023-02-03T02:06:37;8.70;99.90
67163;DHT22;54092;53.088;8.850;2023-02-03T02:09:03;8.60;99.90
67163;DHT22;54092;53.088;8.850;2023-02-03T02:11:29;8.60;99.90
67163;DHT22;54092;53.088;8.850;2023-02-03T02:13:58;8.70;99.90
67163;DHT22;54092;53.088;8.850;2023-02-03T02:16:40;8.60;99.90
67163;DHT22;54092;53.088;8.850;2023-02-03T02:22:19;8.70;99.90
67163;DHT22;54092;53.088;8.850;2023-02-03T02:36:26;8.70;99.90
67163;DHT22;54092;53.088;8.850;2023-02-03T02:39:09;8.80;99.90
67163;DHT22;54092;53.088;8.850;2023-02-03T02:41:51;8.80;99.90
67163;DHT22;54092;53.088;8.850;2023-02-03T02:44:25;8.80;99.90
67163;DHT22;54092;53.088;8.850;2023-02-03T02:46:59;8.80;99.90
67163;DHT22;54092;53.088;8.850;2023-02-03T02:50:15;8.80;99.90
67163;DHT22;54092;53.088;8.850;2023-02-03T02:52:22;8.80;99.90
67163;DHT22;54092;53.088;8.850;2023-02-03T02:54:51;8.80;99.90
67163;DHT22;54092;53.088;8.850;2023-02-03T02:57:19;8.80;99.90
67163;DHT22;54092;53.088;8.850;2023-02-03T02:59:46;8.80;99.90
67163;DHT22;54092;53.088;8.850;2023-02-03T03:02:12;8.80;99.90
67163;DHT22;54092;53.088;8.850;2023-02-03T03:04:37;8.90;99.90
67163;DHT22;54092;53.088;8.850;2023-02-03T03:07:14;8.90;99.90
67163;DHT22;54092;53.088;8.850;2023-02-03T03:09:58;8.90;99.90
67163;DHT22;54092;53.088;8.850;2023-02-03T03:12:34;8.90;99.90
67163;DHT22;54092;53.088;8.850;2023-02-03T03:15:05;8.90;99.90
67163;DHT22;54092;53.088;8.850;2023-02-03T03:17:44;8.90;99.90
67163;DHT22;54092;53.088;8.850;2023-02-03T03:20:16;8.90;99.90
67163;DHT22;54092;53.088;8.850;2023-02-03T03:22:53;8.90;99.90
67163;DHT22;54092;53.088;8.850;2023-02-03T03:25:25;9.00;99.90
67163;DHT22;54092;53.088;8.850;2023-02-03T03:27:57;9.00;99.90
67163;DHT22;54092;53.088;8.850;2023-02-03T03:30:27;9.00;99.90
67163;DHT22;54092;53.088;8.850;2023-02-03T03:32:54;9.00;99.90
67163;DHT22;54092;53.088;8.850;2023-02-03T03:35:20;9.00;99.90
67163;DHT22;54092;53.088;8.850;2023-02-03T03:37:57;8.90;99.90
67163;DHT22;54092;53.088;8.850;2023-02-03T03:40:57;9.00;99.90
67163;DHT22;54092;53.088;8.850;2023-02-03T03:43:29;8.90;99.90
67163;DHT22;54092;53.088;8.850;2023-02-03T03:46:04;9.00;99.90
67163;DHT22;54092;53.088;8.850;2023-02-03T03:48:53;9.00;99.90
67163;DHT22;54092;53.088;8.850;2023-02-03T03:51:26;9.00;99.90
67163;DHT22;54092;53.088;8.850;2023-02-03T03:53:52;9.00;99.90
67163;DHT22;54092;53.088;8.850;2023-02-03T03:56:27;9.00;99.90
67163;DHT22;54092;53.088;8.850;2023-02-03T03:58:53;9.00;99.90
67163;DHT22;54092;53.088;8.850;2023-02-03T04:01:20;9.00;99.90
67163;DHT22;54092;53.088;8.850;2023-02-03T04:03:53;9.00;99.90
67163;DHT22;54092;53.088;8.850;2023-02-03T04:06:20;9.00;99.90
67163;DHT22;54092;53.088;8.850;2023-02-03T04:08:46;9.00;99.90
67163;DHT22;54092;53.088;8.850;2023-02-03T04:11:11;9.00;99.90
67163;DHT22;54092;53.088;8.850;2023-02-03T04:13:57;9.00;99.90
67163;DHT22;54092;53.088;8.850;2023-02-03T04:16:22;9.00;99.90
67163;DHT22;54092;53.088;8.850;2023-02-03T04:18:47;9.00;99.90
67163;DHT22;54092;53.088;8.850;2023-02-03T04:21:13;8.90;99.90
67163;DHT22;54092;53.088;8.850;2023-02-03T04:23:38;8.80;99.90
67163;DHT22;54092;53.088;8.850;2023-02-03T04:26:04;8.80;99.90
67163;DHT22;54092;53.088;8.850;2023-02-03T04:28:29;8.80;99.90
67163;DHT22;54092;53.088;8.850;2023-02-03T04:30:58;8.80;99.90
67163;DHT22;54092;53.088;8.850;2023-02-03T04:33:24;8.70;99.90
67163;DHT22;54092;53.088;8.850;2023-02-03T04:35:49;8.70;99.90
67163;DHT22;54092;53.088;8.850;2023-02-03T04:38:15;8.60;99.90
67163;DHT22;54092;53.088;8.850;2023-02-03T04:40:40;8.60;99.90
67163;DHT22;54092;53.088;8.850;2023-02-03T04:43:07;8.50;99.90
67163;DHT22;54092;53.088;8.850;2023-02-03T04:45:32;8.50;99.90
67163;DHT22;54092;53.088;8.850;2023-02-03T04:47:58;8.50;99.90
67163;DHT22;54092;53.088;8.850;2023-02-03T04:50:23;8.50;99.90
67163;DHT22;54092;53.088;8.850;2023-02-03T04:52:49;8.50;99.90
67163;DHT22;54092;53.088;8.850;2023-02-03T04:55:14;8.50;99.90
67163;DHT22;54092;53.088;8.850;2023-02-03T04:57:40;8.50;99.90
67163;DHT22;54092;53.088;8.850;2023-02-03T05:00:06;8.50;99.90
67163;DHT22;54092;53.088;8.850;2023-02-03T05:02:31;8.60;99.90
67163;DHT22;54092;53.088;8.850;2023-02-03T05:04:57;8.60;99.90
67163;DHT22;54092;53.088;8.850;2023-02-03T05:07:22;8.60;99.90
67163;DHT22;54092;53.088;8.850;2023-02-03T05:09:48;8.70;99.90
67163;DHT22;54092;53.088;8.850;2023-02-03T05:12:13;8.70;99.90
67163;DHT22;54092;53.088;8.850;2023-02-03T05:14:39;8.80;99.90
67163;DHT22;54092;53.088;8.850;2023-02-03T05:17:04;8.80;99.90
67163;DHT22;54092;53.088;8.850;2023-02-03T05:19:30;8.90;99.90
67163;DHT22;54092;53.088;8.850;2023-02-03T05:21:55;8.90;99.90
67163;DHT22;54092;53.088;8.850;2023-02-03T05:24:20;8.90;99.90
67163;DHT22;54092;53.088;8.850;2023-02-03T05:26:46;8.90;99.90
67163;DHT22;54092;53.088;8.850;2023-02-03T05:29:11;8.90;99.90
67163;DHT22;54092;53.088;8.850;2023-02-03T05:31:37;9.00;99.90
67163;DHT22;54092;53.088;8.850;2023-02-03T05:34:02;8.90;99.90
67163;DHT22;54092;53.088;8.850;2023-02-03T05:36:28;9.00;99.90
67163;DHT22;54092;53.088;8.850;2023-02-03T05:38:53;8.90;99.90
67163;DHT22;54092;53.088;8.850;2023-02-03T05:41:19;8.80;99.90
67163;DHT22;54092;53.088;8.850;2023-02-03T05:44:03;8.80;99.90
67163;DHT22;54092;53.088;8.850;2023-02-03T05:46:29;8.70;99.90
67163;DHT22;54092;53.088;8.850;2023-02-03T05:48:54;8.60;99.90
67163;DHT22;54092;53.088;8.850;2023-02-03T05:51:20;8.50;99.90
67163;DHT22;54092;53.088;8.850;2023-02-03T05:53:45;8.50;99.90
67163;DHT22;54092;53.088;8.850;2023-02-03T05:56:11;8.50;99.90
67163;DHT22;54092;53.088;8.850;2023-02-03T05:58:36;8.40;99.90
67163;DHT22;54092;53.088;8.850;2023-02-03T06:01:02;8.50;99.90
67163;DHT22;54092;53.088;8.850;2023-02-03T06:03:27;8.50;99.90
67163;DHT22;54092;53.088;8.850;2023-02-03T06:05:53;8.50;99.90
67163;DHT22;54092;53.088;8.850;2023-02-03T06:08:18;8.50;99.90
67163;DHT22;54092;53.088;8.850;2023-02-03T06:10:44;8.60;99.90
67163;DHT22;54092;53.088;8.850;2023-02-03T06:13:14;8.50;99.90
67163;DHT22;54092;53.088;8.850;2023-02-03T06:15:40;8.50;99.90
67163;DHT22;54092;53.088;8.850;2023-02-03T06:18:06;8.40;99.90
67163;DHT22;54092;53.088;8.850;2023-02-03T06:20:32;8.30;99.90
67163;DHT22;54092;53.088;8.850;2023-02-03T06:22:58;8.30;99.90
67163;DHT22;54092;53.088;8.850;2023-02-03T06:25:23;8.20;99.90
67163;DHT22;54092;53.088;8.850;2023-02-03T06:27:49;8.20;99.90
67163;DHT22;54092;53.088;8.850;2023-02-03T06:30:15;8.20;99.90
67163;DHT22;54092;53.088;8.850;2023-02-03T06:32:41;8.20;99.90
67163;DHT22;54092;53.088;8.850;2023-02-03T06:35:07;8.30;99.90
67163;DHT22;54092;53.088;8.850;2023-02-03T06:37:33;8.30;99.90
67163;DHT22;54092;53.088;8.850;2023-02-03T06:40:00;8.40;99.90
67163;DHT22;54092;53.088;8.850;2023-02-03T06:42:25;8.40;99.90
67163;DHT22;54092;53.088;8.850;2023-02-03T06:44:51;8.40;99.90
67163;DHT22;54092;53.088;8.850;2023-02-03T06:47:16;8.40;99.90
67163;DHT22;54092;53.088;8.850;2023-02-03T06:49:42;8.40;99.90
67163;DHT22;54092;53.088;8.850;2023-02-03T06:52:07;8.50;99.90
67163;DHT22;54092;53.088;8.850;2023-02-03T06:54:33;8.50;99.90
67163;DHT22;54092;53.088;8.850;2023-02-03T06:56:59;8.60;99.90
67163;DHT22;54092;53.088;8.850;2023-02-03T06:59:25;8.70;99.90
67163;DHT22;54092;53.088;8.850;2023-02-03T07:01:50;8.80;99.90
67163;DHT22;54092;53.088;8.850;2023-02-03T07:04:17;8.80;99.90
67163;DHT22;54092;53.088;8.850;2023-02-03T07:06:42;8.80;99.90
67163;DHT22;54092;53.088;8.850;2023-02-03T07:09:08;8.90;99.90
67163;DHT22;54092;53.088;8.850;2023-02-03T07:11:33;9.00;99.90
67163;DHT22;54092;53.088;8.850;2023-02-03T07:13:59;9.10;99.90
67163;DHT22;54092;53.088;8.850;2023-02-03T07:16:25;9.10;99.90
67163;DHT22;54092;53.088;8.850;2023-02-03T07:18:52;9.10;99.90
67163;DHT22;54092;53.088;8.850;2023-02-03T07:21:17;9.20;99.90
67163;DHT22;54092;53.088;8.850;2023-02-03T07:23:46;9.20;99.90
67163;DHT22;54092;53.088;8.850;2023-02-03T07:26:11;9.20;99.90
67163;DHT22;54092;53.088;8.850;2023-02-03T07:28:37;9.30;99.90
67163;DHT22;54092;53.088;8.850;2023-02-03T07:31:02;9.30;99.90
67163;DHT22;54092;53.088;8.850;2023-02-03T07:33:34;9.40;99.90
67163;DHT22;54092;53.088;8.850;2023-02-03T07:36:00;9.40;99.90
67163;DHT22;54092;53.088;8.850;2023-02-03T07:38:27;9.40;99.90
67163;DHT22;54092;53.088;8.850;2023-02-03T07:40:53;9.50;99.90
67163;DHT22;54092;53.088;8.850;2023-02-03T07:43:18;9.50;99.90
67163;DHT22;54092;53.088;8.850;2023-02-03T07:45:44;9.60;99.90
67163;DHT22;54092;53.088;8.850;2023-02-03T07:48:10;9.60;99.90
67163;DHT22;54092;53.088;8.850;2023-02-03T07:50:36;9.60;99.90
67163;DHT22;54092;53.088;8.850;2023-02-03T07:53:02;9.70;99.90
67163;DHT22;54092;53.088;8.850;2023-02-03T07:55:28;9.60;99.90
67163;DHT22;54092;53.088;8.850;2023-02-03T07:57:57;9.70;99.90
67163;DHT22;54092;53.088;8.850;2023-02-03T08:00:24;9.70;99.90
67163;DHT22;54092;53.088;8.850;2023-02-03T08:02:50;9.70;99.90
67163;DHT22;54092;53.088;8.850;2023-02-03T08:05:16;9.70;99.90
67163;DHT22;54092;53.088;8.850;2023-02-03T08:07:42;9.80;99.90
67163;DHT22;54092;53.088;8.850;2023-02-03T08:10:09;9.80;99.90
67163;DHT22;54092;53.088;8.850;2023-02-03T08:12:35;9.80;99.90
67163;DHT22;54092;53.088;8.850;2023-02-03T08:15:01;9.80;99.90
67163;DHT22;54092;53.088;8.850;2023-02-03T08:17:26;9.80;99.90
67163;DHT22;54092;53.088;8.850;2023-02-03T08:19:52;9.80;99.90
67163;DHT22;54092;53.088;8.850;2023-02-03T08:22:17;9.90;99.90
67163;DHT22;54092;53.088;8.850;2023-02-03T08:24:45;9.90;99.90
67163;DHT22;54092;53.088;8.850;2023-02-03T08:27:11;9.90;99.90
67163;DHT22;54092;53.088;8.850;2023-02-03T08:29:37;9.90;99.90
67163;DHT22;54092;53.088;8.850;2023-02-03T08:32:03;9.90;99.90
67163;DHT22;54092;53.088;8.850;2023-02-03T08:34:28;9.90;99.90
67163;DHT22;54092;53.088;8.850;2023-02-03T08:36:54;10.00;99.90
67163;DHT22;54092;53.088;8.850;2023-02-03T08:39:19;9.90;99.90
67163;DHT22;54092;53.088;8.850;2023-02-03T08:41:45;9.90;99.90
67163;DHT22;54092;53.088;8.850;2023-02-03T08:44:11;9.90;99.90
67163;DHT22;54092;53.088;8.850;2023-02-03T08:46:36;9.90;99.90
67163;DHT22;54092;53.088;8.850;2023-02-03T08:49:07;9.90;99.90
67163;DHT22;54092;53.088;8.850;2023-02-03T08:51:33;9.90;99.90
67163;DHT22;54092;53.088;8.850;2023-02-03T08:53:58;9.90;99.90
67163;DHT22;54092;53.088;8.850;2023-02-03T08:56:24;9.90;99.90
67163;DHT22;54092;53.088;8.850;2023-02-03T08:58:50;9.90;99.90
67163;DHT22;54092;53.088;8.850;2023-02-03T09:01:16;9.90;99.90
67163;DHT22;54092;53.088;8.850;2023-02-03T09:03:42;9.90;99.90
67163;DHT22;54092;53.088;8.850;2023-02-03T09:06:09;9.80;99.90
67163;DHT22;54092;53.088;8.850;2023-02-03T09:08:37;9.70;99.90
67163;DHT22;54092;53.088;8.850;2023-02-03T09:11:08;9.70;99.90
67163;DHT22;54092;53.088;8.850;2023-02-03T09:13:34;9.60;99.90
67163;DHT22;54092;53.088;8.850;2023-02-03T09:15:59;9.30;99.90
67163;DHT22;54092;53.088;8.850;2023-02-03T09:18:25;9.10;99.90
67163;DHT22;54092;53.088;8.850;2023-02-03T09:20:50;8.90;99.90
67163;DHT22;54092;53.088;8.850;2023-02-03T09:23:16;8.80;99.90
67163;DHT22;54092;53.088;8.850;2023-02-03T09:25:42;8.80;99.90
67163;DHT22;54092;53.088;8.850;2023-02-03T09:28:07;8.80;99.90
67163;DHT22;54092;53.088;8.850;2023-02-03T09:30:33;8.80;99.90
67163;DHT22;54092;53.088;8.850;2023-02-03T09:32:58;8.80;99.90
67163;DHT22;54092;53.088;8.850;2023-02-03T09:35:24;8.80;99.90
67163;DHT22;54092;53.088;8.850;2023-02-03T09:37:51;8.90;99.90
67163;DHT22;54092;53.088;8.850;2023-02-03T09:40:21;8.90;99.90
67163;DHT22;54092;53.088;8.850;2023-02-03T09:43:08;9.00;99.90
67163;DHT22;54092;53.088;8.850;2023-02-03T09:45:36;9.00;99.90
67163;DHT22;54092;53.088;8.850;2023-02-03T09:48:05;9.10;99.90
67163;DHT22;54092;53.088;8.850;2023-02-03T09:50:35;9.20;99.90
67163;DHT22;54092;53.088;8.850;2023-02-03T09:53:07;9.30;99.90
67163;DHT22;54092;53.088;8.850;2023-02-03T09:55:42;9.60;99.90
67163;DHT22;54092;53.088;8.850;2023-02-03T09:58:12;9.90;99.90
67163;DHT22;54092;53.088;8.850;2023-02-03T10:06:18;10.10;99.90
67163;DHT22;54092;53.088;8.850;2023-02-03T10:17:41;10.80;99.90
67163;DHT22;54092;53.088;8.850;2023-02-03T10:22:46;11.50;99.90
67163;DHT22;54092;53.088;8.850;2023-02-03T10:25:19;11.70;99.90
67163;DHT22;54092;53.088;8.850;2023-02-03T10:27:54;11.50;99.90
67163;DHT22;54092;53.088;8.850;2023-02-03T10:30:25;11.40;99.90
67163;DHT22;54092;53.088;8.850;2023-02-03T10:33:24;11.30;99.90
67163;DHT22;54092;53.088;8.850;2023-02-03T10:38:55;11.10;99.90
67163;DHT22;54092;53.088;8.850;2023-02-03T10:41:24;11.20;99.90
67163;DHT22;54092;53.088;8.850;2023-02-03T10:43:51;11.50;99.90
67163;DHT22;54092;53.088;8.850;2023-02-03T10:46:31;11.70;99.90
67163;DHT22;54092;53.088;8.850;2023-02-03T10:48:58;12.10;99.90
67163;DHT22;54092;53.088;8.850;2023-02-03T10:51:28;12.30;99.90
67163;DHT22;54092;53.088;8.850;2023-02-03T10:53:56;12.10;99.90
67163;DHT22;54092;53.088;8.850;2023-02-03T10:56:36;11.80;99.90
67163;DHT22;54092;53.088;8.850;2023-02-03T10:59:03;11.70;99.90
67163;DHT22;54092;53.088;8.850;2023-02-03T11:01:41;11.40;99.90
67163;DHT22;54092;53.088;8.850;2023-02-03T11:04:29;11.20;99.90
67163;DHT22;54092;53.088;8.850;2023-02-03T11:06:56;11.10;99.90
67163;DHT22;54092;53.088;8.850;2023-02-03T11:09:30;11.20;99.90
67163;DHT22;54092;53.088;8.850;2023-02-03T11:14:37;11.00;99.90
67163;DHT22;54092;53.088;8.850;2023-02-03T11:17:06;11.00;99.90
67163;DHT22;54092;53.088;8.850;2023-02-03T11:19:33;11.00;99.90
67163;DHT22;54092;53.088;8.850;2023-02-03T11:22:02;11.00;99.90
67163;DHT22;54092;53.088;8.850;2023-02-03T11:24:30;11.00;99.90
67163;DHT22;54092;53.088;8.850;2023-02-03T11:27:03;10.90;99.90
67163;DHT22;54092;53.088;8.850;2023-02-03T11:29:33;10.90;99.90
67163;DHT22;54092;53.088;8.850;2023-02-03T11:32:02;11.00;99.90
67163;DHT22;54092;53.088;8.850;2023-02-03T11:34:34;11.10;99.90
67163;DHT22;54092;53.088;8.850;2023-02-03T11:37:27;11.00;99.90
67163;DHT22;54092;53.088;8.850;2023-02-03T11:45:14;10.60;99.90
67163;DHT22;54092;53.088;8.850;2023-02-03T11:50:44;10.50;99.90
67163;DHT22;54092;53.088;8.850;2023-02-03T11:53:19;10.40;99.90
67163;DHT22;54092;53.088;8.850;2023-02-03T11:56:03;10.40;99.90
67163;DHT22;54092;53.088;8.850;2023-02-03T12:06:40;10.40;99.90
67163;DHT22;54092;53.088;8.850;2023-02-03T12:17:49;10.70;99.90
67163;DHT22;54092;53.088;8.850;2023-02-03T12:20:51;10.50;99.90
67163;DHT22;54092;53.088;8.850;2023-02-03T12:23:29;10.40;99.90
67163;DHT22;54092;53.088;8.850;2023-02-03T12:31:44;10.50;99.90
67163;DHT22;54092;53.088;8.850;2023-02-03T12:34:28;10.60;99.90
67163;DHT22;54092;53.088;8.850;2023-02-03T12:37:04;10.70;99.90
67163;DHT22;54092;53.088;8.850;2023-02-03T12:39:47;10.50;99.90
67163;DHT22;54092;53.088;8.850;2023-02-03T12:42:18;10.40;99.90
67163;DHT22;54092;53.088;8.850;2023-02-03T12:44:59;10.40;99.90
67163;DHT22;54092;53.088;8.850;2023-02-03T12:47:35;10.50;99.90
67163;DHT22;54092;53.088;8.850;2023-02-03T12:53:04;10.40;99.90
67163;DHT22;54092;53.088;8.850;2023-02-03T12:55:38;10.30;99.90
67163;DHT22;54092;53.088;8.850;2023-02-03T12:58:27;10.20;99.90
67163;DHT22;54092;53.088;8.850;2023-02-03T13:00:59;10.20;99.90
67163;DHT22;54092;53.088;8.850;2023-02-03T13:03:41;10.10;99.90
67163;DHT22;54092;53.088;8.850;2023-02-03T13:06:39;10.10;99.90
67163;DHT22;54092;53.088;8.850;2023-02-03T13:09:21;10.10;99.90
67163;DHT22;54092;53.088;8.850;2023-02-03T13:11:53;10.10;99.90
67163;DHT22;54092;53.088;8.850;2023-02-03T13:14:21;10.10;99.90
67163;DHT22;54092;53.088;8.850;2023-02-03T13:16:59;10.00;99.90
67163;DHT22;54092;53.088;8.850;2023-02-03T13:19:33;10.00;99.90
67163;DHT22;54092;53.088;8.850;2023-02-03T13:22:04;10.00;99.90
67163;DHT22;54092;53.088;8.850;2023-02-03T13:24:33;9.90;99.90
67163;DHT22;54092;53.088;8.850;2023-02-03T13:27:36;9.90;99.90
67163;DHT22;54092;53.088;8.850;2023-02-03T13:35:56;9.80;99.90
67163;DHT22;54092;53.088;8.850;2023-02-03T13:41:27;9.80;99.90
67163;DHT22;54092;53.088;8.850;2023-02-03T13:43:56;9.70;99.90
67163;DHT22;54092;53.088;8.850;2023-02-03T13:46:29;9.70;99.90
67163;DHT22;54092;53.088;8.850;2023-02-03T13:48:58;9.70;99.90
67163;DHT22;54092;53.088;8.850;2023-02-03T13:51:29;9.70;99.90
67163;DHT22;54092;53.088;8.850;2023-02-03T13:54:04;9.60;99.90
67163;DHT22;54092;53.088;8.850;2023-02-03T13:56:32;9.60;99.90
67163;DHT22;54092;53.088;8.850;2023-02-03T14:07:33;9.60;99.90
67163;DHT22;54092;53.088;8.850;2023-02-03T14:25:37;9.40;99.90
67163;DHT22;54092;53.088;8.850;2023-02-03T14:28:10;9.40;99.90
67163;DHT22;54092;53.088;8.850;2023-02-03T14:31:18;9.40;99.90
67163;DHT22;54092;53.088;8.850;2023-02-03T14:39:00;9.20;99.90
67163;DHT22;54092;53.088;8.850;2023-02-03T14:44:21;9.20;99.90
67163;DHT22;54092;53.088;8.850;2023-02-03T14:46:59;9.20;99.90
67163;DHT22;54092;53.088;8.850;2023-02-03T14:57:47;9.10;99.90
67163;DHT22;54092;53.088;8.850;2023-02-03T15:10:56;9.10;99.90
67163;DHT22;54092;53.088;8.850;2023-02-03T15:13:30;9.00;99.90
67163;DHT22;54092;53.088;8.850;2023-02-03T15:15:59;9.00;99.90
67163;DHT22;54092;53.088;8.850;2023-02-03T15:18:31;8.90;99.90
67163;DHT22;54092;53.088;8.850;2023-02-03T15:20:57;9.00;99.90
67163;DHT22;54092;53.088;8.850;2023-02-03T15:23:25;8.90;99.90
67163;DHT22;54092;53.088;8.850;2023-02-03T15:25:58;9.00;99.90
67163;DHT22;54092;53.088;8.850;2023-02-03T15:28:26;9.00;99.90
67163;DHT22;54092;53.088;8.850;2023-02-03T15:31:12;9.00;99.90
67163;DHT22;54092;53.088;8.850;2023-02-03T15:33:40;9.00;99.90
67163;DHT22;54092;53.088;8.850;2023-02-03T15:36:17;8.90;99.90
67163;DHT22;54092;53.088;8.850;2023-02-03T15:38:48;8.90;99.90
67163;DHT22;54092;53.088;8.850;2023-02-03T15:41:21;8.90;99.90
67163;DHT22;54092;53.088;8.850;2023-02-03T15:43:50;8.90;99.90
67163;DHT22;54092;53.088;8.850;2023-02-03T15:46:27;8.80;99.90
67163;DHT22;54092;53.088;8.850;2023-02-03T15:49:06;8.80;99.90
67163;DHT22;54092;53.088;8.850;2023-02-03T15:51:40;8.80;99.90
67163;DHT22;54092;53.088;8.850;2023-02-03T15:54:25;8.80;99.90
67163;DHT22;54092;53.088;8.850;2023-02-03T15:57:07;8.80;99.90
67163;DHT22;54092;53.088;8.850;2023-02-03T15:59:38;8.80;99.90
67163;DHT22;54092;53.088;8.850;2023-02-03T16:02:37;8.70;99.90
67163;DHT22;54092;53.088;8.850;2023-02-03T16:05:10;8.70;99.90
67163;DHT22;54092;53.088;8.850;2023-02-03T16:07:37;8.70;99.90
67163;DHT22;54092;53.088;8.850;2023-02-03T16:10:03;8.70;99.90
67163;DHT22;54092;53.088;8.850;2023-02-03T16:12:32;8.70;99.90
67163;DHT22;54092;53.088;8.850;2023-02-03T16:14:59;8.70;99.90
67163;DHT22;54092;53.088;8.850;2023-02-03T16:17:32;8.70;99.90
67163;DHT22;54092;53.088;8.850;2023-02-03T16:25:24;8.60;99.90
67163;DHT22;54092;53.088;8.850;2023-02-03T16:31:19;8.60;99.90
67163;DHT22;54092;53.088;8.850;2023-02-03T16:36:57;8.60;99.90
67163;DHT22;54092;53.088;8.850;2023-02-03T16:39:42;8.60;99.90
67163;DHT22;54092;53.088;8.850;2023-02-03T16:42:36;8.50;99.90
67163;DHT22;54092;53.088;8.850;2023-02-03T16:45:20;8.50;99.90
67163;DHT22;54092;53.088;8.850;2023-02-03T16:48:05;8.50;99.90
67163;DHT22;54092;53.088;8.850;2023-02-03T16:50:51;8.50;99.90
67163;DHT22;54092;53.088;8.850;2023-02-03T16:53:26;8.50;99.90
67163;DHT22;54092;53.088;8.850;2023-02-03T16:55:54;8.50;99.90
67163;DHT22;54092;53.088;8.850;2023-02-03T16:58:20;8.50;99.90
67163;DHT22;54092;53.088;8.850;2023-02-03T17:00:47;8.50;99.90
67163;DHT22;54092;53.088;8.850;2023-02-03T17:03:24;8.50;99.90
67163;DHT22;54092;53.088;8.850;2023-02-03T17:05:50;8.50;99.90
67163;DHT22;54092;53.088;8.850;2023-02-03T17:08:19;8.50;99.90
67163;DHT22;54092;53.088;8.850;2023-02-03T17:10:45;8.50;99.90
67163;DHT22;54092;53.088;8.850;2023-02-03T17:13:12;8.50;99.90
67163;DHT22;54092;53.088;8.850;2023-02-03T17:15:40;8.50;99.90
67163;DHT22;54092;53.088;8.850;2023-02-03T17:18:06;8.40;99.90
67163;DHT22;54092;53.088;8.850;2023-02-03T17:20:31;8.30;99.90
67163;DHT22;54092;53.088;8.850;2023-02-03T17:22:57;8.30;99.90
67163;DHT22;54092;53.088;8.850;2023-02-03T17:25:22;8.30;99.90
67163;DHT22;54092;53.088;8.850;2023-02-03T17:27:48;8.30;99.90
67163;DHT22;54092;53.088;8.850;2023-02-03T17:30:14;8.30;99.90
67163;DHT22;54092;53.088;8.850;2023-02-03T17:32:39;8.30;99.90
67163;DHT22;54092;53.088;8.850;2023-02-03T17:35:05;8.30;99.90
67163;DHT22;54092;53.088;8.850;2023-02-03T17:37:34;8.30;99.90
67163;DHT22;54092;53.088;8.850;2023-02-03T17:40:00;8.30;99.90
67163;DHT22;54092;53.088;8.850;2023-02-03T17:42:26;8.30;99.90
67163;DHT22;54092;53.088;8.850;2023-02-03T17:44:51;8.30;99.90
67163;DHT22;54092;53.088;8.850;2023-02-03T17:47:17;8.30;99.90
67163;DHT22;54092;53.088;8.850;2023-02-03T17:49:43;8.20;99.90
67163;DHT22;54092;53.088;8.850;2023-02-03T17:52:11;8.10;99.90
67163;DHT22;54092;53.088;8.850;2023-02-03T17:54:36;8.00;99.90
67163;DHT22;54092;53.088;8.850;2023-02-03T17:57:02;7.90;99.90
67163;DHT22;54092;53.088;8.850;2023-02-03T17:59:28;7.90;99.90
67163;DHT22;54092;53.088;8.850;2023-02-03T18:01:53;7.90;99.90
67163;DHT22;54092;53.088;8.850;2023-02-03T18:04:19;7.80;99.90
67163;DHT22;54092;53.088;8.850;2023-02-03T18:06:44;7.70;99.90
67163;DHT22;54092;53.088;8.850;2023-02-03T18:09:10;7.60;99.90
67163;DHT22;54092;53.088;8.850;2023-02-03T18:11:38;7.40;99.90
67163;DHT22;54092;53.088;8.850;2023-02-03T18:14:04;7.40;99.90
67163;DHT22;54092;53.088;8.850;2023-02-03T18:16:32;7.30;99.90
67163;DHT22;54092;53.088;8.850;2023-02-03T18:18:59;7.30;99.90
67163;DHT22;54092;53.088;8.850;2023-02-03T18:21:26;7.40;99.90
67163;DHT22;54092;53.088;8.850;2023-02-03T18:23:51;7.40;99.90